sensor_id;sensor_type;location;lat;lon;timestamp;pressure;altitude;pressure_sealevel;temperature;humidity
13934;BME280;7039;52.168;9.866;2023-01-24T00:00:53;102903.03;;;3.29;88.08
13934;BME280;7039;52.168;9.866;2023-01-24T00:03:20;102894.38;;;3.27;88.03
13934;BME280;7039;52.168;9.866;2023-01-24T00:05:47;102895.47;;;3.37;87.58
13934;BME280;7039;52.168;9.866;2023-01-24T00:08:16;102899.84;;;3.42;87.42
13934;BME280;7039;52.168;9.866;2023-01-24T00:10:46;102899.97;;;3.48;87.24
13934;BME280;7039;52.168;9.866;2023-01-24T00:13:14;102898.50;;;3.61;86.71
13934;BME280;7039;52.168;9.866;2023-01-24T00:15:40;102901.78;;;3.54;86.41
13934;BME280;7039;52.168;9.866;2023-01-24T00:18:07;102903.56;;;3.58;86.67
13934;BME280;7039;52.168;9.866;2023-01-24T00:20:34;102902.59;;;3.50;86.60
13934;BME280;7039;52.168;9.866;2023-01-24T00:23:00;102889.13;;;3.21;87.48
13934;BME280;7039;52.168;9.866;2023-01-24T00:25:27;102893.69;;;3.35;87.21
13934;BME280;7039;52.168;9.866;2023-01-24T00:27:54;102891.94;;;3.33;87.32
13934;BME280;7039;52.168;9.866;2023-01-24T00:30:21;102882.44;;;3.30;87.48
13934;BME280;7039;52.168;9.866;2023-01-24T00:32:47;102882.56;;;3.37;87.14
13934;BME280;7039;52.168;9.866;2023-01-24T00:35:14;102884.75;;;3.17;87.26
13934;BME280;7039;52.168;9.866;2023-01-24T00:37:40;102882.16;;;3.17;87.73
13934;BME280;7039;52.168;9.866;2023-01-24T00:40:08;102885.78;;;3.25;87.56
13934;BME280;7039;52.168;9.866;2023-01-24T00:42:35;102884.97;;;3.29;87.71
13934;BME280;7039;52.168;9.866;2023-01-24T00:45:03;102883.03;;;3.17;87.64
13934;BME280;7039;52.168;9.866;2023-01-24T00:47:30;102879.00;;;3.30;87.63
13934;BME280;7039;52.168;9.866;2023-01-24T00:49:56;102884.97;;;3.29;87.16
13934;BME280;7039;52.168;9.866;2023-01-24T00:52:22;102878.13;;;3.29;87.10
13934;BME280;7039;52.168;9.866;2023-01-24T00:54:49;102881.53;;;3.28;87.08
13934;BME280;7039;52.168;9.866;2023-01-24T00:57:15;102881.50;;;3.27;87.53
13934;BME280;7039;52.168;9.866;2023-01-24T00:59:42;102873.59;;;3.18;87.74
13934;BME280;7039;52.168;9.866;2023-01-24T01:02:10;102877.06;;;3.18;87.73
13934;BME280;7039;52.168;9.866;2023-01-24T01:04:36;102881.31;;;3.18;87.73
13934;BME280;7039;52.168;9.866;2023-01-24T01:07:02;102883.25;;;3.28;87.52
13934;BME280;7039;52.168;9.866;2023-01-24T01:09:29;102890.00;;;3.21;87.17
13934;BME280;7039;52.168;9.866;2023-01-24T01:11:55;102889.06;;;3.18;87.78
13934;BME280;7039;52.168;9.866;2023-01-24T01:14:22;102876.06;;;3.11;87.55
13934;BME280;7039;52.168;9.866;2023-01-24T01:16:48;102888.16;;;3.16;87.60
13934;BME280;7039;52.168;9.866;2023-01-24T01:19:16;102891.81;;;3.27;87.60
13934;BME280;7039;52.168;9.866;2023-01-24T01:21:42;102887.16;;;3.07;88.22
13934;BME280;7039;52.168;9.866;2023-01-24T01:24:09;102887.41;;;3.21;87.79
13934;BME280;7039;52.168;9.866;2023-01-24T01:26:36;102889.44;;;3.38;87.07
13934;BME280;7039;52.168;9.866;2023-01-24T01:29:02;102888.38;;;3.26;87.23
13934;BME280;7039;52.168;9.866;2023-01-24T01:31:29;102883.56;;;3.01;87.89
13934;BME280;7039;52.168;9.866;2023-01-24T01:33:55;102896.78;;;3.18;87.98
13934;BME280;7039;52.168;9.866;2023-01-24T01:36:23;102894.03;;;3.08;87.79
13934;BME280;7039;52.168;9.866;2023-01-24T01:38:50;102884.44;;;3.01;88.50
13934;BME280;7039;52.168;9.866;2023-01-24T01:41:16;102890.31;;;2.94;88.43
13934;BME280;7039;52.168;9.866;2023-01-24T01:43:42;102888.41;;;2.85;88.83
13934;BME280;7039;52.168;9.866;2023-01-24T01:46:26;102893.69;;;2.91;89.04
13934;BME280;7039;52.168;9.866;2023-01-24T01:48:57;102894.88;;;3.07;88.05
13934;BME280;7039;52.168;9.866;2023-01-24T01:51:30;102890.81;;;3.19;87.67
13934;BME280;7039;52.168;9.866;2023-01-24T01:54:01;102889.03;;;3.16;87.65
13934;BME280;7039;52.168;9.866;2023-01-24T01:56:31;102889.94;;;3.20;87.60
13934;BME280;7039;52.168;9.866;2023-01-24T01:59:02;102887.91;;;3.03;87.43
13934;BME280;7039;52.168;9.866;2023-01-24T02:01:30;102890.59;;;3.08;87.87
13934;BME280;7039;52.168;9.866;2023-01-24T02:04:02;102895.16;;;3.21;87.32
13934;BME280;7039;52.168;9.866;2023-01-24T02:06:45;102893.50;;;3.25;87.01
13934;BME280;7039;52.168;9.866;2023-01-24T02:09:17;102890.47;;;3.02;87.35
13934;BME280;7039;52.168;9.866;2023-01-24T02:11:45;102893.13;;;3.05;87.94
13934;BME280;7039;52.168;9.866;2023-01-24T02:14:17;102896.56;;;3.05;88.08
13934;BME280;7039;52.168;9.866;2023-01-24T02:17:02;102901.13;;;3.19;86.88
13934;BME280;7039;52.168;9.866;2023-01-24T02:19:45;102898.72;;;3.28;86.83
13934;BME280;7039;52.168;9.866;2023-01-24T02:22:18;102893.38;;;3.19;86.94
13934;BME280;7039;52.168;9.866;2023-01-24T02:24:55;102892.44;;;3.13;87.18
13934;BME280;7039;52.168;9.866;2023-01-24T02:27:27;102901.25;;;3.25;86.86
13934;BME280;7039;52.168;9.866;2023-01-24T02:29:53;102893.41;;;3.20;86.55
13934;BME280;7039;52.168;9.866;2023-01-24T02:32:20;102894.38;;;3.25;86.39
13934;BME280;7039;52.168;9.866;2023-01-24T02:34:46;102893.38;;;3.19;86.66
13934;BME280;7039;52.168;9.866;2023-01-24T02:37:13;102895.09;;;3.18;86.48
13934;BME280;7039;52.168;9.866;2023-01-24T02:39:45;102895.25;;;3.26;86.66
13934;BME280;7039;52.168;9.866;2023-01-24T02:42:15;102893.53;;;3.26;86.14
13934;BME280;7039;52.168;9.866;2023-01-24T02:44:50;102889.31;;;3.31;86.15
13934;BME280;7039;52.168;9.866;2023-01-24T02:47:19;102891.94;;;3.33;85.56
13934;BME280;7039;52.168;9.866;2023-01-24T02:49:45;102888.38;;;3.26;85.71
13934;BME280;7039;52.168;9.866;2023-01-24T02:52:11;102893.38;;;3.19;85.82
13934;BME280;7039;52.168;9.866;2023-01-24T02:55:07;102896.28;;;3.34;85.46
13934;BME280;7039;52.168;9.866;2023-01-24T02:57:34;102895.38;;;3.32;85.24
13934;BME280;7039;52.168;9.866;2023-01-24T03:00:20;102895.47;;;3.37;85.28
13934;BME280;7039;52.168;9.866;2023-01-24T03:02:46;102886.09;;;3.42;84.95
13934;BME280;7039;52.168;9.866;2023-01-24T03:05:13;102886.03;;;3.39;84.97
13934;BME280;7039;52.168;9.866;2023-01-24T03:07:39;102885.06;;;3.32;84.85
13934;BME280;7039;52.168;9.866;2023-01-24T03:10:10;102872.75;;;3.20;85.28
13934;BME280;7039;52.168;9.866;2023-01-24T03:15:11;102870.34;;;3.28;84.91
13934;BME280;7039;52.168;9.866;2023-01-24T03:17:58;102871.16;;;3.25;84.79
13934;BME280;7039;52.168;9.866;2023-01-24T03:20:46;102865.31;;;3.34;84.45
13934;BME280;7039;52.168;9.866;2023-01-24T03:23:30;102868.63;;;3.28;84.72
13934;BME280;7039;52.168;9.866;2023-01-24T03:26:14;102869.38;;;3.21;85.37
13934;BME280;7039;52.168;9.866;2023-01-24T03:28:58;102872.97;;;3.31;85.07
13934;BME280;7039;52.168;9.866;2023-01-24T03:31:42;102858.19;;;3.22;85.04
13934;BME280;7039;52.168;9.866;2023-01-24T03:34:27;102866.88;;;3.26;84.96
13934;BME280;7039;52.168;9.866;2023-01-24T03:36:57;102870.44;;;3.32;84.71
13934;BME280;7039;52.168;9.866;2023-01-24T03:39:24;102867.00;;;3.33;84.92
13934;BME280;7039;52.168;9.866;2023-01-24T03:42:08;102875.72;;;3.40;84.18
13934;BME280;7039;52.168;9.866;2023-01-24T03:44:35;102870.41;;;3.31;84.38
13934;BME280;7039;52.168;9.866;2023-01-24T03:47:02;102872.97;;;3.31;84.49
13934;BME280;7039;52.168;9.866;2023-01-24T03:49:30;102875.72;;;3.39;84.46
13934;BME280;7039;52.168;9.866;2023-01-24T03:52:13;102872.03;;;3.26;84.06
13934;BME280;7039;52.168;9.866;2023-01-24T03:54:53;102867.50;;;3.14;84.46
13934;BME280;7039;52.168;9.866;2023-01-24T03:57:20;102866.78;;;3.21;84.58
13934;BME280;7039;52.168;9.866;2023-01-24T03:59:47;102869.63;;;3.35;83.96
13934;BME280;7039;52.168;9.866;2023-01-24T04:02:13;102865.16;;;3.26;84.16
13934;BME280;7039;52.168;9.866;2023-01-24T04:04:41;102863.56;;;3.33;84.21
13934;BME280;7039;52.168;9.866;2023-01-24T04:07:26;102862.66;;;3.31;83.75
13934;BME280;7039;52.168;9.866;2023-01-24T04:09:52;102859.69;;;3.09;84.22
13934;BME280;7039;52.168;9.866;2023-01-24T04:12:18;102869.41;;;3.23;83.68
13934;BME280;7039;52.168;9.866;2023-01-24T04:14:45;102866.84;;;3.24;83.72
13934;BME280;7039;52.168;9.866;2023-01-24T04:17:12;102862.41;;;3.17;84.01
13934;BME280;7039;52.168;9.866;2023-01-24T04:19:38;102866.78;;;3.21;84.06
13934;BME280;7039;52.168;9.866;2023-01-24T04:22:06;102865.03;;;3.19;83.85
13934;BME280;7039;52.168;9.866;2023-01-24T04:24:32;102864.03;;;3.12;83.75
13934;BME280;7039;52.168;9.866;2023-01-24T04:26:59;102863.44;;;3.27;83.51
13934;BME280;7039;52.168;9.866;2023-01-24T04:29:25;102873.91;;;3.34;83.18
13934;BME280;7039;52.168;9.866;2023-01-24T04:31:52;102864.13;;;3.17;83.97
13934;BME280;7039;52.168;9.866;2023-01-24T04:34:18;102869.06;;;3.06;83.89
13934;BME280;7039;52.168;9.866;2023-01-24T04:36:45;102861.44;;;3.12;83.83
13934;BME280;7039;52.168;9.866;2023-01-24T04:39:12;102873.50;;;3.13;84.28
13934;BME280;7039;52.168;9.866;2023-01-24T04:41:39;102864.06;;;3.15;84.24
13934;BME280;7039;52.168;9.866;2023-01-24T04:44:06;102862.44;;;3.20;83.69
13934;BME280;7039;52.168;9.866;2023-01-24T04:46:32;102859.81;;;3.17;83.42
13934;BME280;7039;52.168;9.866;2023-01-24T04:48:59;102865.94;;;3.21;83.29
13934;BME280;7039;52.168;9.866;2023-01-24T04:51:25;102859.06;;;3.21;82.98
13934;BME280;7039;52.168;9.866;2023-01-24T04:53:52;102861.31;;;3.06;83.12
13934;BME280;7039;52.168;9.866;2023-01-24T04:56:19;102864.03;;;3.12;83.46
13934;BME280;7039;52.168;9.866;2023-01-24T04:58:46;102861.44;;;3.12;83.37
13934;BME280;7039;52.168;9.866;2023-01-24T05:01:12;102860.00;;;3.25;82.79
13934;BME280;7039;52.168;9.866;2023-01-24T05:03:39;102855.53;;;3.16;83.00
13934;BME280;7039;52.168;9.866;2023-01-24T05:06:05;102856.41;;;3.18;82.58
13934;BME280;7039;52.168;9.866;2023-01-24T05:08:32;102860.00;;;3.25;82.71
13934;BME280;7039;52.168;9.866;2023-01-24T05:11:00;102860.63;;;3.14;83.25
13934;BME280;7039;52.168;9.866;2023-01-24T05:13:28;102860.69;;;3.16;82.82
13934;BME280;7039;52.168;9.866;2023-01-24T05:15:54;102864.16;;;3.18;83.28
13934;BME280;7039;52.168;9.866;2023-01-24T05:18:21;102869.38;;;3.21;82.85
13934;BME280;7039;52.168;9.866;2023-01-24T05:20:47;102869.25;;;3.15;82.85
13934;BME280;7039;52.168;9.866;2023-01-24T05:23:14;102864.72;;;3.03;82.94
13934;BME280;7039;52.168;9.866;2023-01-24T05:25:40;102865.63;;;3.05;83.31
13934;BME280;7039;52.168;9.866;2023-01-24T05:28:07;102872.59;;;3.11;83.17
13934;BME280;7039;52.168;9.866;2023-01-24T05:30:34;102883.03;;;3.17;82.99
13934;BME280;7039;52.168;9.866;2023-01-24T05:33:01;102880.38;;;3.12;82.55
13934;BME280;7039;52.168;9.866;2023-01-24T05:35:28;102879.53;;;3.13;82.39
13934;BME280;7039;52.168;9.866;2023-01-24T05:37:55;102879.63;;;3.18;82.11
13934;BME280;7039;52.168;9.866;2023-01-24T05:40:21;102887.41;;;3.21;81.93
13934;BME280;7039;52.168;9.866;2023-01-24T05:42:48;102879.59;;;3.17;81.82
13934;BME280;7039;52.168;9.866;2023-01-24T05:45:14;102885.69;;;3.22;81.80
13934;BME280;7039;52.168;9.866;2023-01-24T05:47:42;102883.06;;;3.19;82.39
13934;BME280;7039;52.168;9.866;2023-01-24T05:50:09;102874.00;;;2.95;82.52
13934;BME280;7039;52.168;9.866;2023-01-24T05:52:36;102876.09;;;3.14;82.11
13934;BME280;7039;52.168;9.866;2023-01-24T05:55:03;102880.38;;;3.12;81.57
13934;BME280;7039;52.168;9.866;2023-01-24T05:57:30;102878.81;;;3.22;81.84
13934;BME280;7039;52.168;9.866;2023-01-24T05:59:56;102875.03;;;3.03;82.10
13934;BME280;7039;52.168;9.866;2023-01-24T06:02:23;102872.31;;;2.97;82.06
13934;BME280;7039;52.168;9.866;2023-01-24T06:04:50;102885.53;;;3.12;81.78
13934;BME280;7039;52.168;9.866;2023-01-24T06:07:17;102884.31;;;2.95;81.80
13934;BME280;7039;52.168;9.866;2023-01-24T06:09:43;102892.03;;;2.95;82.10
13934;BME280;7039;52.168;9.866;2023-01-24T06:12:10;102881.00;;;3.01;81.74
13934;BME280;7039;52.168;9.866;2023-01-24T06:14:36;102890.06;;;2.82;82.35
13934;BME280;7039;52.168;9.866;2023-01-24T06:17:03;102893.50;;;2.82;82.44
13934;BME280;7039;52.168;9.866;2023-01-24T06:19:30;102903.16;;;2.92;81.73
13934;BME280;7039;52.168;9.866;2023-01-24T06:22:03;102911.06;;;3.00;81.94
13934;BME280;7039;52.168;9.866;2023-01-24T06:24:35;102914.13;;;2.82;81.23
13934;BME280;7039;52.168;9.866;2023-01-24T06:27:02;102914.38;;;2.95;81.65
13934;BME280;7039;52.168;9.866;2023-01-24T06:29:29;102918.66;;;2.94;81.84
13934;BME280;7039;52.168;9.866;2023-01-24T06:32:02;102918.72;;;2.97;82.13
13934;BME280;7039;52.168;9.866;2023-01-24T06:34:47;102914.50;;;3.01;81.99
13934;BME280;7039;52.168;9.866;2023-01-24T06:37:23;102917.91;;;3.00;81.95
13934;BME280;7039;52.168;9.866;2023-01-24T06:39:53;102922.38;;;3.07;81.43
13934;BME280;7039;52.168;9.866;2023-01-24T06:42:21;102921.66;;;3.16;80.99
13934;BME280;7039;52.168;9.866;2023-01-24T06:44:48;102921.19;;;2.91;81.38
13934;BME280;7039;52.168;9.866;2023-01-24T06:47:15;102924.25;;;3.16;80.55
13934;BME280;7039;52.168;9.866;2023-01-24T06:49:42;102928.34;;;3.06;80.88
13934;BME280;7039;52.168;9.866;2023-01-24T06:52:10;102931.13;;;3.15;80.73
13934;BME280;7039;52.168;9.866;2023-01-24T06:54:38;102928.53;;;3.15;80.57
13934;BME280;7039;52.168;9.866;2023-01-24T06:57:05;102931.88;;;3.11;79.90
13934;BME280;7039;52.168;9.866;2023-01-24T06:59:31;102931.56;;;2.94;81.23
13934;BME280;7039;52.168;9.866;2023-01-24T07:01:58;102932.78;;;3.13;80.38
13934;BME280;7039;52.168;9.866;2023-01-24T07:04:24;102925.69;;;3.01;80.98
13934;BME280;7039;52.168;9.866;2023-01-24T07:06:51;102934.13;;;2.94;81.20
13934;BME280;7039;52.168;9.866;2023-01-24T07:09:18;102933.59;;;3.09;80.72
13934;BME280;7039;52.168;9.866;2023-01-24T07:11:45;102928.31;;;3.04;80.72
13934;BME280;7039;52.168;9.866;2023-01-24T07:14:14;102936.91;;;3.03;80.51
13934;BME280;7039;52.168;9.866;2023-01-24T07:16:41;102943.09;;;3.11;80.23
13934;BME280;7039;52.168;9.866;2023-01-24T07:19:08;102939.53;;;3.05;80.47
13934;BME280;7039;52.168;9.866;2023-01-24T07:21:39;102948.34;;;3.16;79.77
13934;BME280;7039;52.168;9.866;2023-01-24T07:24:09;102949.13;;;3.12;79.89
13934;BME280;7039;52.168;9.866;2023-01-24T07:26:38;102948.25;;;3.11;80.10
13934;BME280;7039;52.168;9.866;2023-01-24T07:29:06;102944.91;;;3.17;79.98
13934;BME280;7039;52.168;9.866;2023-01-24T07:31:33;102960.50;;;3.22;80.03
13934;BME280;7039;52.168;9.866;2023-01-24T07:33:59;102946.31;;;3.01;80.64
13934;BME280;7039;52.168;9.866;2023-01-24T07:36:26;102961.16;;;3.13;80.05
13934;BME280;7039;52.168;9.866;2023-01-24T07:38:53;102954.84;;;2.99;80.32
13934;BME280;7039;52.168;9.866;2023-01-24T07:41:19;102959.16;;;3.00;80.19
13934;BME280;7039;52.168;9.866;2023-01-24T07:43:46;102955.91;;;3.08;79.92
13934;BME280;7039;52.168;9.866;2023-01-24T07:46:14;102959.47;;;3.13;80.07
13934;BME280;7039;52.168;9.866;2023-01-24T07:48:40;102959.56;;;3.18;79.82
13934;BME280;7039;52.168;9.866;2023-01-24T07:51:07;102950.78;;;3.10;80.31
13934;BME280;7039;52.168;9.866;2023-01-24T07:53:34;102954.28;;;3.12;80.34
13934;BME280;7039;52.168;9.866;2023-01-24T07:56:02;102952.94;;;2.88;81.16
13934;BME280;7039;52.168;9.866;2023-01-24T07:58:29;102960.97;;;3.04;80.60
13934;BME280;7039;52.168;9.866;2023-01-24T08:00:55;102962.63;;;3.00;80.29
13934;BME280;7039;52.168;9.866;2023-01-24T08:03:23;102969.88;;;3.18;80.49
13934;BME280;7039;52.168;9.866;2023-01-24T08:05:50;102963.25;;;3.29;80.05
13934;BME280;7039;52.168;9.866;2023-01-24T08:08:16;102964.53;;;3.10;80.33
13934;BME280;7039;52.168;9.866;2023-01-24T08:10:43;102968.88;;;3.11;80.16
13934;BME280;7039;52.168;9.866;2023-01-24T08:13:09;102963.53;;;3.02;80.82
13934;BME280;7039;52.168;9.866;2023-01-24T08:15:36;102972.56;;;3.23;80.13
13934;BME280;7039;52.168;9.866;2023-01-24T08:18:02;102966.22;;;3.08;80.67
13934;BME280;7039;52.168;9.866;2023-01-24T08:20:30;102973.19;;;3.12;80.37
13934;BME280;7039;52.168;9.866;2023-01-24T08:22:57;102962.00;;;3.12;80.23
13934;BME280;7039;52.168;9.866;2023-01-24T08:25:24;102976.97;;;3.28;80.34
13934;BME280;7039;52.168;9.866;2023-01-24T08:27:50;102974.47;;;3.33;79.95
13934;BME280;7039;52.168;9.866;2023-01-24T08:30:17;102974.56;;;3.38;79.79
13934;BME280;7039;52.168;9.866;2023-01-24T08:32:44;102973.59;;;3.32;78.90
13934;BME280;7039;52.168;9.866;2023-01-24T08:35:10;102984.78;;;3.33;79.72
13934;BME280;7039;52.168;9.866;2023-01-24T08:37:38;102986.13;;;3.16;80.47
13934;BME280;7039;52.168;9.866;2023-01-24T08:40:06;102990.66;;;3.26;79.94
13934;BME280;7039;52.168;9.866;2023-01-24T08:42:33;102983.78;;;3.26;79.71
13934;BME280;7039;52.168;9.866;2023-01-24T08:45:01;102982.06;;;3.25;80.02
13934;BME280;7039;52.168;9.866;2023-01-24T08:47:27;102993.75;;;3.50;78.99
13934;BME280;7039;52.168;9.866;2023-01-24T08:49:54;102986.91;;;3.54;78.70
13934;BME280;7039;52.168;9.866;2023-01-24T08:52:20;102990.34;;;3.53;78.68
13934;BME280;7039;52.168;9.866;2023-01-24T08:54:48;102996.81;;;3.75;78.31
13934;BME280;7039;52.168;9.866;2023-01-24T08:57:15;102992.78;;;3.45;78.76
13934;BME280;7039;52.168;9.866;2023-01-24T08:59:41;103001.97;;;3.76;77.71
13934;BME280;7039;52.168;9.866;2023-01-24T09:02:08;103003.06;;;3.88;78.18
13934;BME280;7039;52.168;9.866;2023-01-24T09:04:38;102993.59;;;3.87;77.25
13934;BME280;7039;52.168;9.866;2023-01-24T09:07:04;103004.25;;;4.05;77.17
13934;BME280;7039;52.168;9.866;2023-01-24T09:09:31;102996.78;;;3.73;77.80
13934;BME280;7039;52.168;9.866;2023-01-24T09:11:59;102997.69;;;3.75;78.01
13934;BME280;7039;52.168;9.866;2023-01-24T09:14:25;103016.22;;;4.00;77.34
13934;BME280;7039;52.168;9.866;2023-01-24T09:16:52;103009.44;;;4.08;77.05
13934;BME280;7039;52.168;9.866;2023-01-24T09:19:18;103009.97;;;3.89;76.89
13934;BME280;7039;52.168;9.866;2023-01-24T09:21:44;103000.22;;;3.74;77.59
13934;BME280;7039;52.168;9.866;2023-01-24T09:24:16;103010.03;;;3.92;77.45
13934;BME280;7039;52.168;9.866;2023-01-24T09:26:43;103011.63;;;3.85;77.55
13934;BME280;7039;52.168;9.866;2023-01-24T09:29:11;103012.31;;;3.76;78.24
13934;BME280;7039;52.168;9.866;2023-01-24T09:31:37;103004.97;;;3.52;79.14
13934;BME280;7039;52.168;9.866;2023-01-24T09:34:04;103015.41;;;3.59;78.94
13934;BME280;7039;52.168;9.866;2023-01-24T09:36:30;103017.50;;;3.78;78.38
13934;BME280;7039;52.168;9.866;2023-01-24T09:38:57;103012.13;;;3.66;78.34
13934;BME280;7039;52.168;9.866;2023-01-24T09:41:35;103006.03;;;3.62;79.03
13934;BME280;7039;52.168;9.866;2023-01-24T09:44:14;103004.69;;;3.83;78.33
13934;BME280;7039;52.168;9.866;2023-01-24T09:46:45;103005.63;;;3.86;77.52
13934;BME280;7039;52.168;9.866;2023-01-24T09:49:17;103009.25;;;3.96;77.13
13934;BME280;7039;52.168;9.866;2023-01-24T09:51:50;103019.53;;;3.93;77.09
13934;BME280;7039;52.168;9.866;2023-01-24T09:54:27;103017.25;;;4.10;76.34
13934;BME280;7039;52.168;9.866;2023-01-24T09:56:56;103008.31;;;3.92;77.04
13934;BME280;7039;52.168;9.866;2023-01-24T09:59:33;103020.25;;;3.87;77.46
13934;BME280;7039;52.168;9.866;2023-01-24T10:02:15;103019.56;;;3.96;77.48
13934;BME280;7039;52.168;9.866;2023-01-24T10:04:43;103018.22;;;4.16;76.57
13934;BME280;7039;52.168;9.866;2023-01-24T10:07:46;103021.94;;;4.32;76.18
13934;BME280;7039;52.168;9.866;2023-01-24T10:10:29;103016.66;;;4.25;76.44
13934;BME280;7039;52.168;9.866;2023-01-24T10:13:03;103017.47;;;4.24;76.03
13934;BME280;7039;52.168;9.866;2023-01-24T10:15:39;103005.97;;;4.05;77.03
13934;BME280;7039;52.168;9.866;2023-01-24T10:18:28;103006.69;;;3.99;77.48
13934;BME280;7039;52.168;9.866;2023-01-24T10:21:10;103009.06;;;4.34;76.73
13934;BME280;7039;52.168;9.866;2023-01-24T10:23:41;103005.34;;;4.18;76.82
13934;BME280;7039;52.168;9.866;2023-01-24T10:26:16;103008.91;;;4.25;76.81
13934;BME280;7039;52.168;9.866;2023-01-24T10:28:47;103000.81;;;4.06;77.12
13934;BME280;7039;52.168;9.866;2023-01-24T10:31:20;103008.00;;;4.23;76.46
13934;BME280;7039;52.168;9.866;2023-01-24T10:33:51;102999.19;;;4.11;77.00
13934;BME280;7039;52.168;9.866;2023-01-24T10:36:28;102996.97;;;4.33;75.94
13934;BME280;7039;52.168;9.866;2023-01-24T10:38:56;103002.75;;;4.19;75.64
13934;BME280;7039;52.168;9.866;2023-01-24T10:41:24;103005.00;;;4.51;75.19
13934;BME280;7039;52.168;9.866;2023-01-24T10:43:55;103002.50;;;4.56;75.18
13934;BME280;7039;52.168;9.866;2023-01-24T10:46:34;102997.38;;;4.57;74.48
13934;BME280;7039;52.168;9.866;2023-01-24T10:49:13;102989.56;;;4.54;73.76
13934;BME280;7039;52.168;9.866;2023-01-24T10:51:40;102987.84;;;4.55;73.84
13934;BME280;7039;52.168;9.866;2023-01-24T10:54:19;102987.22;;;4.71;74.20
13934;BME280;7039;52.168;9.866;2023-01-24T10:56:46;102970.66;;;4.58;73.89
13934;BME280;7039;52.168;9.866;2023-01-24T10:59:14;102970.16;;;4.25;75.52
13934;BME280;7039;52.168;9.866;2023-01-24T11:01:44;102971.16;;;4.34;75.24
13934;BME280;7039;52.168;9.866;2023-01-24T11:04:17;102973.16;;;4.52;74.85
13934;BME280;7039;52.168;9.866;2023-01-24T11:06:46;102967.53;;;4.23;75.26
13934;BME280;7039;52.168;9.866;2023-01-24T11:09:14;102968.63;;;4.37;75.05
13934;BME280;7039;52.168;9.866;2023-01-24T11:11:43;102972.84;;;4.32;75.25
13934;BME280;7039;52.168;9.866;2023-01-24T11:14:13;102974.00;;;4.51;74.85
13934;BME280;7039;52.168;9.866;2023-01-24T11:16:43;102976.06;;;4.74;74.38
13934;BME280;7039;52.168;9.866;2023-01-24T11:19:27;102972.44;;;4.61;74.55
13934;BME280;7039;52.168;9.866;2023-01-24T11:21:55;102971.63;;;4.65;74.69
13934;BME280;7039;52.168;9.866;2023-01-24T11:24:22;102964.50;;;4.49;74.90
13934;BME280;7039;52.168;9.866;2023-01-24T11:26:57;102960.78;;;4.33;75.57
13934;BME280;7039;52.168;9.866;2023-01-24T11:29:24;102970.63;;;4.55;74.74
13934;BME280;7039;52.168;9.866;2023-01-24T11:31:53;102968.16;;;4.65;74.51
13934;BME280;7039;52.168;9.866;2023-01-24T11:34:35;102967.13;;;4.53;74.36
13934;BME280;7039;52.168;9.866;2023-01-24T11:40:14;102967.31;;;4.64;74.80
13934;BME280;7039;52.168;9.866;2023-01-24T11:42:49;102958.34;;;4.42;74.34
13934;BME280;7039;52.168;9.866;2023-01-24T11:45:34;102962.44;;;4.28;76.14
13934;BME280;7039;52.168;9.866;2023-01-24T11:48:08;102948.66;;;4.27;75.58
13934;BME280;7039;52.168;9.866;2023-01-24T11:50:45;102958.16;;;4.30;75.62
13934;BME280;7039;52.168;9.866;2023-01-24T11:53:31;102947.81;;;4.28;75.58
13934;BME280;7039;52.168;9.866;2023-01-24T11:56:11;102944.25;;;4.22;75.82
13934;BME280;7039;52.168;9.866;2023-01-24T12:01:40;102945.38;;;4.37;75.38
13934;BME280;7039;52.168;9.866;2023-01-24T12:04:41;102938.44;;;4.35;75.53
13934;BME280;7039;52.168;9.866;2023-01-24T12:07:16;102929.53;;;4.17;75.67
13934;BME280;7039;52.168;9.866;2023-01-24T12:09:47;102931.41;;;4.25;75.72
13934;BME280;7039;52.168;9.866;2023-01-24T12:12:20;102927.94;;;4.24;75.62
13934;BME280;7039;52.168;9.866;2023-01-24T12:15:02;102930.59;;;4.29;75.34
13934;BME280;7039;52.168;9.866;2023-01-24T12:17:41;102931.00;;;4.00;76.51
13934;BME280;7039;52.168;9.866;2023-01-24T12:20:27;102922.34;;;3.98;76.77
13934;BME280;7039;52.168;9.866;2023-01-24T12:23:01;102922.75;;;4.24;75.45
13934;BME280;7039;52.168;9.866;2023-01-24T12:25:32;102920.53;;;4.46;75.04
13934;BME280;7039;52.168;9.866;2023-01-24T12:28:02;102917.88;;;4.43;74.96
13934;BME280;7039;52.168;9.866;2023-01-24T12:30:33;102912.00;;;4.53;74.85
13934;BME280;7039;52.168;9.866;2023-01-24T12:33:05;102907.78;;;4.59;74.56
13934;BME280;7039;52.168;9.866;2023-01-24T12:35:41;102901.41;;;4.34;74.87
13934;BME280;7039;52.168;9.866;2023-01-24T12:38:15;102897.84;;;4.28;75.40
13934;BME280;7039;52.168;9.866;2023-01-24T12:40:48;102888.78;;;3.98;75.32
13934;BME280;7039;52.168;9.866;2023-01-24T12:43:19;102889.06;;;4.16;74.77
13934;BME280;7039;52.168;9.866;2023-01-24T12:45:55;102879.50;;;4.11;75.11
13934;BME280;7039;52.168;9.866;2023-01-24T12:48:29;102886.34;;;4.07;75.74
13934;BME280;7039;52.168;9.866;2023-01-24T12:51:07;102874.13;;;3.97;76.08
13934;BME280;7039;52.168;9.866;2023-01-24T12:53:38;102881.28;;;4.15;75.55
13934;BME280;7039;52.168;9.866;2023-01-24T12:56:14;102880.81;;;3.86;74.81
13934;BME280;7039;52.168;9.866;2023-01-24T12:58:46;102878.84;;;4.23;74.52
13934;BME280;7039;52.168;9.866;2023-01-24T13:01:30;102884.34;;;4.47;74.15
13934;BME280;7039;52.168;9.866;2023-01-24T13:04:10;102882.69;;;4.51;74.18
13934;BME280;7039;52.168;9.866;2023-01-24T13:06:47;102874.84;;;4.45;73.84
13934;BME280;7039;52.168;9.866;2023-01-24T13:09:23;102867.19;;;3.94;75.07
13934;BME280;7039;52.168;9.866;2023-01-24T13:11:55;102854.00;;;3.76;75.10
13934;BME280;7039;52.168;9.866;2023-01-24T13:14:28;102868.91;;;3.94;75.29
13934;BME280;7039;52.168;9.866;2023-01-24T13:17:10;102863.94;;;4.05;75.04
13934;BME280;7039;52.168;9.866;2023-01-24T13:19:50;102871.84;;;4.17;75.30
13934;BME280;7039;52.168;9.866;2023-01-24T13:22:37;102862.97;;;3.98;75.86
13934;BME280;7039;52.168;9.866;2023-01-24T13:25:22;102875.34;;;4.19;74.73
13934;BME280;7039;52.168;9.866;2023-01-24T13:27:56;102872.53;;;4.05;74.88
13934;BME280;7039;52.168;9.866;2023-01-24T13:30:31;102880.59;;;4.25;74.85
13934;BME280;7039;52.168;9.866;2023-01-24T13:33:01;102874.41;;;4.14;75.12
13934;BME280;7039;52.168;9.866;2023-01-24T13:35:29;102876.03;;;4.07;75.30